DLH648 UACC-EDDF
Flight info
| Callsign | DLH648 |
|---|---|
| Flight time | N/A |
| Altitude | 38000 |
| Route | VETUB2A VETUB P574 OGANU N55 MASAV N161 GASBI/N0478F380 N161 LEYLA T916 MATAL M11 REBLO UM11 CRM UL746 ODERO DCT OPT DCT SOKRU DCT ARSIN DCT LNZ DCT SUBEN DCT AKINI T161 DEBHI DEBHI1C |
| Aircraft | A343/H-SDE2E3FGHIJ4J5M1RWXY/LB1D1 |
Departure
| Time | 2026-04-30 08:53 |
|---|---|
| Airport | Nursultan Nazarbayev International Airport (UACC) |
Arrival
| Time | N/A |
|---|---|
| Airport | Frankfurt Main Airport (EDDF) |
| Time | Latitude | Longitude | Altitude | Speed | Heading |
|---|---|---|---|---|---|
| 2026-04-30 07:56 | 51.02777 | 71.46459 | 1173 ft | 0 kts | 315° |
| 2026-04-30 08:30 | 51.02776 | 71.46460 | 1168 ft | 1 kts | 315° |
| 2026-04-30 08:30 | 51.02765 | 71.46479 | 1168 ft | 3 kts | 311° |
| 2026-04-30 08:30 | 51.02751 | 71.46501 | 1168 ft | 3 kts | 311° |
| 2026-04-30 08:30 | 51.02739 | 71.46527 | 1168 ft | 3 kts | 295° |
| 2026-04-30 08:31 | 51.02733 | 71.46556 | 1169 ft | 3 kts | 274° |
| 2026-04-30 08:31 | 51.02734 | 71.46586 | 1168 ft | 3 kts | 252° |
| 2026-04-30 08:31 | 51.02743 | 71.46615 | 1168 ft | 3 kts | 231° |
| 2026-04-30 08:31 | 51.02752 | 71.46631 | 1168 ft | 1 kts | 223° |
| 2026-04-30 08:32 | 51.02764 | 71.46649 | 1168 ft | 3 kts | 224° |
| 2026-04-30 08:32 | 51.02778 | 71.46671 | 1168 ft | 3 kts | 225° |
| 2026-04-30 08:32 | 51.02792 | 71.46695 | 1168 ft | 3 kts | 227° |
| 2026-04-30 08:32 | 51.02806 | 71.46718 | 1168 ft | 3 kts | 227° |
| 2026-04-30 08:33 | 51.02820 | 71.46741 | 1168 ft | 3 kts | 224° |
| 2026-04-30 08:33 | 51.02835 | 71.46761 | 1168 ft | 3 kts | 210° |
| 2026-04-30 08:33 | 51.02852 | 71.46774 | 1169 ft | 3 kts | 189° |
| 2026-04-30 08:33 | 51.02872 | 71.46775 | 1170 ft | 3 kts | 172° |
| 2026-04-30 08:34 | 51.02892 | 71.46770 | 1168 ft | 2 kts | 177° |
| 2026-04-30 08:34 | 51.02898 | 71.46770 | 1169 ft | 0 kts | 183° |
| 2026-04-30 08:43 | 51.02897 | 71.46770 | 1173 ft | 1 kts | 183° |
| 2026-04-30 08:44 | 51.02877 | 71.46769 | 1169 ft | 5 kts | 183° |
| 2026-04-30 08:44 | 51.02837 | 71.46789 | 1168 ft | 6 kts | 142° |
| 2026-04-30 08:44 | 51.02806 | 71.46838 | 1168 ft | 7 kts | 134° |
| 2026-04-30 08:44 | 51.02770 | 71.46897 | 1168 ft | 7 kts | 135° |
| 2026-04-30 08:45 | 51.02736 | 71.46895 | 1171 ft | 5 kts | 206° |
| 2026-04-30 08:45 | 51.02702 | 71.46853 | 1169 ft | 8 kts | 221° |
| 2026-04-30 08:45 | 51.02648 | 71.46768 | 1169 ft | 13 kts | 225° |
| 2026-04-30 08:45 | 51.02581 | 71.46663 | 1169 ft | 13 kts | 224° |
| 2026-04-30 08:46 | 51.02515 | 71.46562 | 1169 ft | 13 kts | 224° |
| 2026-04-30 08:46 | 51.02452 | 71.46464 | 1168 ft | 13 kts | 224° |
| 2026-04-30 08:46 | 51.02390 | 71.46367 | 1168 ft | 12 kts | 225° |
| 2026-04-30 08:46 | 51.02330 | 71.46273 | 1168 ft | 12 kts | 224° |
| 2026-04-30 08:47 | 51.02272 | 71.46182 | 1168 ft | 12 kts | 224° |
| 2026-04-30 08:47 | 51.02213 | 71.46090 | 1168 ft | 12 kts | 224° |
| 2026-04-30 08:47 | 51.02151 | 71.45994 | 1172 ft | 14 kts | 224° |
| 2026-04-30 08:47 | 51.02075 | 71.45875 | 1170 ft | 17 kts | 224° |
| 2026-04-30 08:48 | 51.01994 | 71.45749 | 1168 ft | 16 kts | 224° |
| 2026-04-30 08:48 | 51.01916 | 71.45627 | 1168 ft | 15 kts | 224° |
| 2026-04-30 08:48 | 51.01841 | 71.45510 | 1170 ft | 15 kts | 224° |
| 2026-04-30 08:48 | 51.01768 | 71.45397 | 1170 ft | 15 kts | 224° |
| 2026-04-30 08:49 | 51.01697 | 71.45286 | 1168 ft | 14 kts | 224° |
| 2026-04-30 08:49 | 51.01629 | 71.45179 | 1168 ft | 14 kts | 225° |
| 2026-04-30 08:49 | 51.01563 | 71.45075 | 1168 ft | 13 kts | 225° |
| 2026-04-30 08:49 | 51.01499 | 71.44976 | 1169 ft | 13 kts | 224° |
| 2026-04-30 08:50 | 51.01437 | 71.44879 | 1170 ft | 12 kts | 224° |
| 2026-04-30 08:50 | 51.01377 | 71.44786 | 1169 ft | 12 kts | 224° |
| 2026-04-30 08:50 | 51.01324 | 71.44710 | 1169 ft | 8 kts | 214° |
| 2026-04-30 08:50 | 51.01271 | 71.44700 | 1170 ft | 7 kts | 166° |
| 2026-04-30 08:51 | 51.01227 | 71.44751 | 1168 ft | 10 kts | 135° |
| 2026-04-30 08:51 | 51.01179 | 71.44828 | 1168 ft | 10 kts | 135° |
| 2026-04-30 08:51 | 51.01156 | 71.44889 | 1169 ft | 5 kts | 94° |
| 2026-04-30 08:51 | 51.01171 | 71.44930 | 1169 ft | 5 kts | 49° |
| 2026-04-30 08:52 | 51.01183 | 71.44947 | 1168 ft | 0 kts | 42° |
| 2026-04-30 08:52 | 51.01227 | 71.45010 | 1170 ft | 29 kts | 43° |
| 2026-04-30 08:52 | 51.01502 | 71.45441 | 1168 ft | 80 kts | 45° |
| 2026-04-30 08:53 | 51.02009 | 71.46235 | 1168 ft | 123 kts | 45° |
| 2026-04-30 08:53 | 51.02699 | 71.47313 | 1169 ft | 158 kts | 44° |
| 2026-04-30 08:53 | 51.03551 | 71.48634 | 1427 ft | 169 kts | 46° |
| 2026-04-30 08:53 | 51.04408 | 71.49861 | 1918 ft | 171 kts | 44° |
| 2026-04-30 08:54 | 51.05239 | 71.51220 | 2368 ft | 172 kts | 61° |
| 2026-04-30 08:54 | 51.05566 | 71.53009 | 2829 ft | 172 kts | 94° |
| 2026-04-30 08:54 | 51.05121 | 71.54778 | 3187 ft | 181 kts | 127° |
| 2026-04-30 08:54 | 51.04204 | 71.56289 | 3475 ft | 201 kts | 143° |
| 2026-04-30 08:55 | 51.02788 | 71.57016 | 3536 ft | 233 kts | 182° |
| 2026-04-30 08:55 | 51.01169 | 71.56255 | 3926 ft | 251 kts | 196° |
| 2026-04-30 08:55 | 50.99452 | 71.55601 | 4538 ft | 257 kts | 190° |
| 2026-04-30 08:55 | 50.97721 | 71.54763 | 5229 ft | 263 kts | 201° |
| 2026-04-30 08:56 | 50.96188 | 71.53150 | 6027 ft | 269 kts | 222° |
| 2026-04-30 08:56 | 50.95171 | 71.50681 | 6874 ft | 275 kts | 243° |
| 2026-04-30 08:56 | 50.94516 | 71.47823 | 7684 ft | 276 kts | 247° |
| 2026-04-30 08:56 | 50.93933 | 71.44919 | 8455 ft | 277 kts | 248° |
| 2026-04-30 08:57 | 50.93355 | 71.41999 | 9208 ft | 278 kts | 248° |
| 2026-04-30 08:57 | 50.92773 | 71.39066 | 9965 ft | 279 kts | 248° |
| 2026-04-30 08:57 | 50.92184 | 71.36113 | 10471 ft | 287 kts | 248° |
| 2026-04-30 08:57 | 50.91559 | 71.33013 | 10768 ft | 303 kts | 248° |
| 2026-04-30 08:58 | 50.90902 | 71.29754 | 11044 ft | 318 kts | 248° |
| 2026-04-30 08:58 | 50.90215 | 71.26342 | 11298 ft | 333 kts | 248° |
| 2026-04-30 08:58 | 50.89496 | 71.22774 | 11506 ft | 347 kts | 249° |
| 2026-04-30 08:58 | 50.88746 | 71.19057 | 11777 ft | 360 kts | 249° |
| 2026-04-30 08:59 | 50.87975 | 71.15237 | 12198 ft | 368 kts | 249° |
| 2026-04-30 08:59 | 50.87190 | 71.11352 | 12722 ft | 373 kts | 249° |
| 2026-04-30 08:59 | 50.86395 | 71.07428 | 13276 ft | 377 kts | 249° |
| 2026-04-30 08:59 | 50.85588 | 71.03455 | 13858 ft | 380 kts | 249° |
| 2026-04-30 09:00 | 50.84774 | 70.99458 | 14392 ft | 384 kts | 250° |
| 2026-04-30 09:00 | 50.83950 | 70.95420 | 14935 ft | 386 kts | 250° |
| 2026-04-30 09:00 | 50.83120 | 70.91363 | 15471 ft | 389 kts | 250° |
| 2026-04-30 09:00 | 50.82281 | 70.87273 | 15995 ft | 392 kts | 250° |
| 2026-04-30 09:01 | 50.81434 | 70.83158 | 16566 ft | 395 kts | 250° |
| 2026-04-30 09:01 | 50.80581 | 70.79011 | 17081 ft | 398 kts | 250° |
| 2026-04-30 09:01 | 50.79719 | 70.74835 | 17598 ft | 401 kts | 250° |
| 2026-04-30 09:01 | 50.78850 | 70.70636 | 18120 ft | 404 kts | 250° |
| 2026-04-30 09:02 | 50.77101 | 70.62207 | 19053 ft | 409 kts | 250° |
| 2026-04-30 09:02 | 50.76211 | 70.57928 | 19522 ft | 411 kts | 250° |
| 2026-04-30 09:02 | 50.75314 | 70.53629 | 20000 ft | 413 kts | 250° |
| 2026-04-30 09:03 | 50.74412 | 70.49312 | 20452 ft | 415 kts | 250° |
| 2026-04-30 09:03 | 50.73503 | 70.44974 | 20901 ft | 417 kts | 250° |
| 2026-04-30 09:03 | 50.72587 | 70.40611 | 21375 ft | 420 kts | 250° |
| 2026-04-30 09:03 | 50.71664 | 70.36230 | 21803 ft | 422 kts | 250° |
| 2026-04-30 09:04 | 50.70736 | 70.31826 | 22233 ft | 424 kts | 250° |
| 2026-04-30 09:04 | 50.69798 | 70.27391 | 22660 ft | 426 kts | 250° |
| 2026-04-30 09:04 | 50.68857 | 70.22945 | 23073 ft | 429 kts | 250° |
| 2026-04-30 09:04 | 50.67905 | 70.18479 | 23486 ft | 431 kts | 250° |
| 2026-04-30 09:05 | 50.66907 | 70.14009 | 23829 ft | 433 kts | 249° |
| 2026-04-30 09:05 | 50.65874 | 70.09518 | 24148 ft | 435 kts | 249° |
| 2026-04-30 09:05 | 50.64843 | 70.05083 | 24459 ft | 438 kts | 249° |
| 2026-04-30 09:05 | 50.63791 | 70.00570 | 24789 ft | 439 kts | 249° |
| 2026-04-30 09:06 | 50.62740 | 69.96043 | 25111 ft | 441 kts | 249° |
| 2026-04-30 09:06 | 50.61686 | 69.91493 | 25424 ft | 443 kts | 249° |
| 2026-04-30 09:06 | 50.60628 | 69.86920 | 25727 ft | 445 kts | 249° |
| 2026-04-30 09:06 | 50.59566 | 69.82330 | 26030 ft | 447 kts | 249° |
| 2026-04-30 09:07 | 50.58500 | 69.77728 | 26329 ft | 449 kts | 249° |
| 2026-04-30 09:07 | 50.57426 | 69.73101 | 26620 ft | 451 kts | 249° |
| 2026-04-30 09:07 | 50.56345 | 69.68454 | 26923 ft | 452 kts | 249° |
| 2026-04-30 09:07 | 50.55260 | 69.63801 | 27192 ft | 454 kts | 249° |
| 2026-04-30 09:08 | 50.54167 | 69.59126 | 27475 ft | 456 kts | 249° |
| 2026-04-30 09:08 | 50.53071 | 69.54446 | 27756 ft | 457 kts | 249° |
| 2026-04-30 09:08 | 50.51967 | 69.49743 | 28022 ft | 459 kts | 249° |
| 2026-04-30 09:08 | 50.50856 | 69.45025 | 28271 ft | 461 kts | 248° |
| 2026-04-30 09:09 | 50.49741 | 69.40294 | 28517 ft | 463 kts | 248° |
| 2026-04-30 09:09 | 50.48620 | 69.35551 | 28785 ft | 464 kts | 248° |
| 2026-04-30 09:09 | 50.47510 | 69.30864 | 29140 ft | 463 kts | 248° |
| 2026-04-30 09:09 | 50.46386 | 69.26131 | 29503 ft | 462 kts | 248° |
| 2026-04-30 09:10 | 50.45262 | 69.21407 | 29861 ft | 461 kts | 248° |
| 2026-04-30 09:10 | 50.44140 | 69.16706 | 30233 ft | 458 kts | 248° |
| 2026-04-30 09:10 | 50.43027 | 69.12049 | 30654 ft | 454 kts | 248° |
| 2026-04-30 09:10 | 50.41917 | 69.07413 | 30967 ft | 453 kts | 248° |
| 2026-04-30 09:11 | 50.40807 | 69.02788 | 31207 ft | 453 kts | 248° |
| 2026-04-30 09:11 | 50.39698 | 68.98178 | 31466 ft | 452 kts | 248° |
| 2026-04-30 09:11 | 50.38584 | 68.93560 | 31735 ft | 452 kts | 248° |
| 2026-04-30 09:11 | 50.37473 | 68.88960 | 32005 ft | 451 kts | 248° |
| 2026-04-30 09:12 | 50.36362 | 68.84374 | 32265 ft | 450 kts | 248° |
| 2026-04-30 09:12 | 50.35251 | 68.79793 | 32531 ft | 449 kts | 248° |
| 2026-04-30 09:12 | 50.34155 | 68.75286 | 32821 ft | 447 kts | 248° |
| 2026-04-30 09:12 | 50.33039 | 68.70702 | 33228 ft | 443 kts | 248° |
| 2026-04-30 09:13 | 50.31957 | 68.66270 | 33514 ft | 441 kts | 248° |
| 2026-04-30 09:13 | 50.30859 | 68.61782 | 33724 ft | 441 kts | 248° |
| 2026-04-30 09:13 | 50.29759 | 68.57298 | 33944 ft | 441 kts | 248° |
| 2026-04-30 09:13 | 50.28655 | 68.52804 | 33981 ft | 444 kts | 248° |
| 2026-04-30 09:14 | 50.26436 | 68.43799 | 33979 ft | 443 kts | 248° |
| 2026-04-30 09:14 | 50.24219 | 68.34834 | 33974 ft | 442 kts | 248° |
| 2026-04-30 09:15 | 50.22000 | 68.25877 | 33963 ft | 442 kts | 249° |
| 2026-04-30 09:15 | 50.19978 | 68.16764 | 33972 ft | 446 kts | 251° |
| 2026-04-30 09:16 | 50.18043 | 68.07567 | 33971 ft | 446 kts | 251° |
| 2026-04-30 09:16 | 50.16075 | 67.98380 | 33965 ft | 446 kts | 250° |
| 2026-04-30 09:17 | 50.14071 | 67.89211 | 33963 ft | 446 kts | 250° |
| 2026-04-30 09:17 | 50.12067 | 67.80131 | 33960 ft | 445 kts | 250° |
| 2026-04-30 09:18 | 50.10047 | 67.71020 | 33958 ft | 445 kts | 250° |
| 2026-04-30 09:18 | 50.08021 | 67.61911 | 33959 ft | 445 kts | 250° |
| 2026-04-30 09:19 | 50.05987 | 67.52807 | 33963 ft | 445 kts | 250° |
| 2026-04-30 09:19 | 50.03951 | 67.43726 | 33948 ft | 444 kts | 249° |
| 2026-04-30 09:20 | 50.01908 | 67.34661 | 33946 ft | 444 kts | 249° |
| 2026-04-30 09:20 | 49.99860 | 67.25609 | 33947 ft | 444 kts | 249° |
| 2026-04-30 09:21 | 49.97803 | 67.16558 | 33944 ft | 444 kts | 249° |
| 2026-04-30 09:21 | 49.95666 | 67.07552 | 33945 ft | 444 kts | 246° |
| 2026-04-30 09:22 | 49.93169 | 66.98841 | 33942 ft | 444 kts | 244° |
| 2026-04-30 09:22 | 49.90592 | 66.90134 | 33942 ft | 444 kts | 244° |
| 2026-04-30 09:23 | 49.88058 | 66.81389 | 33936 ft | 444 kts | 244° |
| 2026-04-30 09:23 | 49.85562 | 66.72669 | 33935 ft | 444 kts | 244° |
| 2026-04-30 09:24 | 49.83057 | 66.63915 | 33932 ft | 445 kts | 244° |
| 2026-04-30 09:24 | 49.80539 | 66.55155 | 33932 ft | 445 kts | 244° |
| 2026-04-30 09:25 | 49.78440 | 66.47884 | 33930 ft | 445 kts | 244° |
| 2026-04-30 09:25 | 49.75907 | 66.39140 | 33930 ft | 445 kts | 244° |
| 2026-04-30 09:26 | 49.73372 | 66.30405 | 33928 ft | 445 kts | 244° |
| 2026-04-30 09:26 | 49.70897 | 66.21635 | 33927 ft | 445 kts | 244° |
| 2026-04-30 09:27 | 49.68439 | 66.12863 | 33923 ft | 445 kts | 244° |
| 2026-04-30 09:27 | 49.65966 | 66.04102 | 33922 ft | 445 kts | 244° |
| 2026-04-30 09:28 | 49.63477 | 65.95350 | 33916 ft | 445 kts | 244° |
| 2026-04-30 09:28 | 49.60983 | 65.86616 | 33915 ft | 444 kts | 243° |
| 2026-04-30 09:29 | 49.58504 | 65.77970 | 33919 ft | 443 kts | 243° |
| 2026-04-30 09:29 | 49.56001 | 65.69273 | 33913 ft | 443 kts | 243° |
| 2026-04-30 09:30 | 49.53498 | 65.60603 | 33918 ft | 443 kts | 243° |
| 2026-04-30 09:30 | 49.50986 | 65.51933 | 33922 ft | 443 kts | 243° |
| 2026-04-30 09:31 | 49.48469 | 65.43279 | 33917 ft | 443 kts | 243° |
| 2026-04-30 09:31 | 49.45946 | 65.34636 | 33916 ft | 443 kts | 243° |
| 2026-04-30 09:32 | 49.43419 | 65.26007 | 33923 ft | 443 kts | 243° |
| 2026-04-30 09:32 | 49.40884 | 65.17383 | 33922 ft | 443 kts | 243° |
| 2026-04-30 09:33 | 49.38340 | 65.08761 | 33927 ft | 443 kts | 242° |
| 2026-04-30 09:33 | 49.35791 | 65.00150 | 33927 ft | 443 kts | 242° |
| 2026-04-30 09:34 | 49.33219 | 64.91572 | 33914 ft | 442 kts | 241° |
| 2026-04-30 09:34 | 49.30531 | 64.83172 | 33930 ft | 442 kts | 240° |
| 2026-04-30 09:35 | 49.27792 | 64.74743 | 33921 ft | 442 kts | 240° |
| 2026-04-30 09:35 | 49.25065 | 64.66304 | 33914 ft | 442 kts | 240° |
| 2026-04-30 09:36 | 49.22348 | 64.57879 | 33914 ft | 442 kts | 240° |